Terminal Aerodrome Forecast
Issued by NWS

Home | Current Version | Previous Version | Text Only | Print | Product List | Glossary On
Versions: 1 2 3 4 5 6 7 8 9 10 11 12 13 14 15 16 17 18 19 20 21 22 23 24 25 26 27 28 29 30 31 32 33 34 35 36 37 38 39 40 41 42 43 44 45 46 47 48 49 50
000
FTUS45 KBOU 300425 AAD
TAFBJC
TAF AMD
KBJC 300425Z 3004/3024 35007KT P6SM -SHRA SCT020 BKN035 BKN060
     FM300500 32013KT P6SM VCSH SCT040 BKN060
     FM300700 28014G24KT P6SM SCT060 BKN100
     FM301000 24008KT P6SM SCT070 BKN120
     FM301800 28007KT P6SM FEW070 SCT120
     FM302200 33008KT P6SM SCT070 SCT120=

USA.gov is the U.S. government's official web portal to all federal, state and local government web resources and services.